Main page
Satellite images 10-day forecastsClimateMarine weather Cyclones Lightning AirportsFAQ Newsletter About
Weather : Europe Africa North America South America Asia Australia-Oceania Others
Languages Contact

Singapore, Singapore

Military airbase Paya Lebar

latitude: 01-22N, longitude: 103-55E, elevation: 18 m


METAR: WSAP 300000Z 03007KT 9999 FEW018 BKN150 26/23 Q1012
TAF: WSAP 292300Z 3000/3106 03008KT 9999 FEW018CB SCT020 TEMPO 3005/3009 3000 TSRA FEW012CB BKN015

Time: 08:19 (00:19 UTC)

Current weather observation

The report was made 19 minutes ago, at 00:00 UTC
Wind 7 kt from the North/Northeast
Temperature 26°C
Humidity 84%
Pressure 1012 hPa
Visibility 10 km or more
Few clouds at a height of 1800 ft
Broken clouds at a height of 15000 ft

Change units

Forecast

The report was made 1 hour and 19 minutes ago, at 23:00 UTC
Forecast valid from 30 at 00 UTC to 31 at 06 UTC
Wind 8 kt from the North/Northeast
Visibility 10 km or more
Few clouds at a height of 1800 ft, Cumulonimbus.
Scattered clouds at a height of 2000 ft
Temporary
from 30 at 05 UTC to 30 at 09 UTC
Visibility: 3000 m
Few clouds at a height of 1200 ft, Cumulonimbus.
Broken clouds at a height of 1500 ft
thunderstorm rain
The information on this site is subject to a disclaimer
Weather : Europe Africa North America South America Asia Australia-Oceania Others
Satellite images 10-day forecastsClimateMarine weather Cyclones Lightning AirportsFAQ Languages Contact Newsletter About